Time;durP1;ratioP1;P1;durP2;ratioP2;P2;SDS_P1;SDS_P2;PMS_P1;PMS_P2;Temp;Humidity;BMP_temperature;BMP_pressure;BME280_temperature;BME280_humidity;BME280_pressure;Samples;Min_cycle;Max_cycle;Signal;HPM_P1;HPM_P2
2023/05/14 00:00:15;;;;;;;14.82;13.27;;;;;;;12.92;100.00;101850.72;1047490;28;20076;-84
2023/05/14 00:00:46;;;;;;;13.98;12.63;;;;;;;12.83;100.00;101840.44;1056130;28;20061;-84
2023/05/14 00:01:18;;;;;;;13.32;11.93;;;;;;;12.85;100.00;101847.22;1044395;28;20037;-84
2023/05/14 00:01:50;;;;;;;14.57;13.18;;;;;;;12.76;100.00;101852.97;1044483;28;20037;-84
2023/05/14 00:02:22;;;;;;;13.60;12.30;;;;;;;12.78;100.00;101850.91;1046751;28;20496;-84
2023/05/14 00:02:54;;;;;;;14.23;12.90;;;;;;;12.58;100.00;101846.38;1043705;28;20167;-84
2023/05/14 00:03:26;;;;;;;15.38;13.27;;;;;;;12.56;100.00;101845.75;1043352;28;20507;-84
2023/05/14 00:03:58;;;;;;;13.35;12.15;;;;;;;12.65;100.00;101852.56;1042230;28;20086;-84
2023/05/14 00:04:29;;;;;;;15.25;12.50;;;;;;;12.76;100.00;101842.28;1035510;28;20073;-84
2023/05/14 00:05:01;;;;;;;19.73;13.93;;;;;;;12.64;100.00;101845.59;1040299;28;20038;-84
2023/05/14 00:05:33;;;;;;;17.52;13.68;;;;;;;12.71;100.00;101855.44;1043669;28;20041;-84
2023/05/14 00:06:05;;;;;;;15.48;12.82;;;;;;;12.72;100.00;101835.72;1047782;28;20047;-84
2023/05/14 00:06:36;;;;;;;16.10;14.40;;;;;;;12.72;100.00;101836.53;1047562;28;20036;-84
2023/05/14 00:07:08;;;;;;;14.48;13.07;;;;;;;12.82;100.00;101833.44;1042189;28;20052;-84
2023/05/14 00:07:40;;;;;;;14.60;13.00;;;;;;;12.62;100.00;101838.81;1043713;28;20045;-84
2023/05/14 00:08:11;;;;;;;15.27;13.68;;;;;;;12.77;100.00;101843.94;1044158;28;20068;-84
2023/05/14 00:08:43;;;;;;;14.48;13.13;;;;;;;12.71;100.00;101839.41;1047858;28;20044;-84
2023/05/14 00:09:15;;;;;;;14.27;12.80;;;;;;;12.68;100.00;101836.13;1046693;28;20290;-84
2023/05/14 00:09:46;;;;;;;14.43;12.38;;;;;;;12.73;100.00;101842.69;1039784;28;20034;-84
2023/05/14 00:10:20;;;;;;;15.35;13.43;;;;;;;12.75;100.00;101840.66;1043598;28;20079;-84
2023/05/14 00:10:52;;;;;;;15.23;13.80;;;;;;;12.65;100.00;101844.56;1043083;28;20072;-84
2023/05/14 00:11:24;;;;;;;16.50;13.35;;;;;;;12.64;100.00;101842.91;1040235;28;20049;-84
2023/05/14 00:11:56;;;;;;;14.55;12.77;;;;;;;12.75;100.00;101841.47;1039007;28;20045;-84
2023/05/14 00:12:28;;;;;;;14.35;12.95;;;;;;;12.72;100.00;101843.72;1039533;28;20237;-84
2023/05/14 00:13:00;;;;;;;15.32;13.75;;;;;;;12.74;100.00;101841.66;1043274;28;20086;-84
2023/05/14 00:13:32;;;;;;;14.90;12.77;;;;;;;12.64;100.00;101836.75;1040188;28;20338;-84
2023/05/14 00:14:03;;;;;;;15.35;13.88;;;;;;;12.66;100.00;101846.19;1040912;28;20049;-84
2023/05/14 00:14:35;;;;;;;22.52;14.48;;;;;;;12.54;100.00;101839.81;1031678;28;20051;-84
2023/05/14 00:15:07;;;;;;;13.68;12.25;;;;;;;12.63;100.00;101837.78;1035850;28;20305;-84
2023/05/14 00:15:39;;;;;;;15.85;12.48;;;;;;;12.58;100.00;101838.38;1038964;28;20041;-84
2023/05/14 00:16:11;;;;;;;15.07;13.32;;;;;;;12.58;100.00;101838.38;1038820;28;20547;-84
2023/05/14 00:16:42;;;;;;;13.10;11.85;;;;;;;12.53;100.00;101840.84;1040624;28;20528;-84
2023/05/14 00:17:14;;;;;;;14.60;13.10;;;;;;;12.55;100.00;101841.44;1044023;28;20292;-84
2023/05/14 00:17:46;;;;;;;14.27;12.98;;;;;;;12.59;100.00;101836.50;1043130;28;20044;-84
2023/05/14 00:18:17;;;;;;;17.70;13.38;;;;;;;12.55;100.00;101845.97;1043804;28;20857;-84
2023/05/14 00:18:49;;;;;;;13.82;12.55;;;;;;;12.52;100.00;101844.53;1039929;28;20046;-84
2023/05/14 00:19:21;;;;;;;16.65;12.80;;;;;;;12.54;100.00;101842.47;1039354;28;20425;-84
2023/05/14 00:19:52;;;;;;;13.52;12.32;;;;;;;12.45;100.00;101841.03;1043321;28;20295;-84
2023/05/14 00:20:24;;;;;;;15.80;13.20;;;;;;;12.39;100.00;101841.88;1039843;28;20338;-84
2023/05/14 00:20:56;;;;;;;15.32;12.50;;;;;;;12.34;100.00;101845.16;1043884;28;20287;-84
2023/05/14 00:21:27;;;;;;;15.98;12.95;;;;;;;12.33;100.00;101845.34;1039724;28;20504;-84
2023/05/14 00:21:59;;;;;;;15.38;12.50;;;;;;;12.37;100.00;101841.25;1038790;28;20596;-84
2023/05/14 00:22:30;;;;;;;17.88;12.75;;;;;;;12.46;100.00;101847.22;1039429;28;20299;-84
2023/05/14 00:23:02;;;;;;;13.68;12.27;;;;;;;12.44;100.00;101842.06;1035857;28;20311;-84
2023/05/14 00:23:34;;;;;;;14.73;13.20;;;;;;;12.47;100.00;101838.16;1039378;28;20300;-84
2023/05/14 00:24:05;;;;;;;13.90;12.35;;;;;;;12.48;100.00;101840.63;1039974;28;20391;-83
2023/05/14 00:24:37;;;;;;;15.18;12.18;;;;;;;12.41;100.00;101837.13;1043853;28;20627;-84
2023/05/14 00:25:09;;;;;;;15.57;12.57;;;;;;;12.34;100.00;101849.66;1047563;28;20298;-84
2023/05/14 00:25:40;;;;;;;13.75;12.40;;;;;;;12.21;100.00;101844.28;1043974;28;20574;-84
2023/05/14 00:26:12;;;;;;;13.90;12.35;;;;;;;12.05;100.00;101842.78;1041363;28;20514;-84
2023/05/14 00:26:45;;;;;;;14.98;13.30;;;;;;;11.97;100.00;101843.81;1040641;28;20080;-84
2023/05/14 00:27:17;;;;;;;13.80;12.52;;;;;;;12.13;100.00;101839.97;1043114;28;20303;-84
2023/05/14 00:27:48;;;;;;;14.48;13.07;;;;;;;12.25;100.00;101845.53;1044417;28;20223;-84
2023/05/14 00:28:20;;;;;;;14.30;12.82;;;;;;;12.21;100.00;101839.75;1043154;28;20362;-84
2023/05/14 00:28:52;;;;;;;14.15;12.82;;;;;;;12.20;100.00;101840.78;1043087;28;20114;-84
2023/05/14 00:29:23;;;;;;;15.05;13.20;;;;;;;12.27;100.00;101835.44;1042836;28;20045;-84
2023/05/14 00:29:55;;;;;;;13.70;12.27;;;;;;;12.17;100.00;101838.53;1043482;28;20049;-84
2023/05/14 00:30:27;;;;;;;15.40;13.18;;;;;;;12.17;100.00;101837.69;1036861;28;20292;-84
2023/05/14 00:30:58;;;;;;;17.50;13.68;;;;;;;12.15;100.00;101837.09;1038998;28;20379;-84
2023/05/14 00:31:30;;;;;;;15.38;12.52;;;;;;;12.19;100.00;101832.97;1035284;28;20117;-84
2023/05/14 00:32:02;;;;;;;15.45;13.52;;;;;;;12.27;100.00;101828.25;1040331;28;20722;-84
2023/05/14 00:32:33;;;;;;;16.92;13.25;;;;;;;12.36;100.00;101836.94;1047337;28;20048;-84
2023/05/14 00:33:05;;;;;;;15.60;13.43;;;;;;;12.36;100.00;101842.28;1044692;28;20299;-84
2023/05/14 00:33:37;;;;;;;14.73;12.85;;;;;;;12.41;100.00;101829.13;1039899;28;20130;-84
2023/05/14 00:34:09;;;;;;;16.05;14.38;;;;;;;12.39;100.00;101833.84;1040382;28;20387;-84
2023/05/14 00:34:40;;;;;;;14.63;13.13;;;;;;;12.50;100.00;101833.22;1040253;28;20817;-84
2023/05/14 00:35:12;;;;;;;16.50;14.02;;;;;;;12.59;100.00;101826.66;1039862;28;20059;-84
2023/05/14 00:35:44;;;;;;;15.52;13.45;;;;;;;12.63;100.00;101837.78;1040250;28;20403;-84
2023/05/14 00:36:16;;;;;;;19.58;13.48;;;;;;;12.62;100.00;101831.59;1036689;28;20659;-84
2023/05/14 00:36:47;;;;;;;15.20;13.18;;;;;;;12.64;100.00;101831.41;1039812;28;20084;-84
2023/05/14 00:37:19;;;;;;;14.18;12.77;;;;;;;12.66;100.00;101832.84;1036492;28;20041;-84
2023/05/14 00:37:51;;;;;;;15.57;13.98;;;;;;;12.54;100.00;101834.47;1039576;28;20307;-84
2023/05/14 00:38:23;;;;;;;17.27;13.80;;;;;;;12.53;100.00;101835.50;1042986;28;20129;-84
2023/05/14 00:38:54;;;;;;;15.25;13.70;;;;;;;12.34;100.00;101831.78;1043948;28;20048;-84
2023/05/14 00:39:26;;;;;;;15.60;13.93;;;;;;;12.45;100.00;101835.69;1040476;28;20296;-84
2023/05/14 00:39:57;;;;;;;13.50;12.18;;;;;;;12.23;100.00;101834.22;1040669;28;20681;-84
2023/05/14 00:40:29;;;;;;;14.68;13.27;;;;;;;12.25;100.00;101834.84;1044065;28;20040;-83
2023/05/14 00:41:01;;;;;;;14.20;12.23;;;;;;;12.38;100.00;101829.53;1040717;28;20423;-84
2023/05/14 00:41:33;;;;;;;15.57;13.75;;;;;;;12.63;100.00;101830.56;1041370;28;20350;-84
2023/05/14 00:42:05;;;;;;;20.83;14.05;;;;;;;12.67;100.00;101831.81;1040136;28;20491;-84
2023/05/14 00:42:37;;;;;;;15.43;13.65;;;;;;;12.72;100.00;101819.66;1040368;28;20447;-84
2023/05/14 00:43:08;;;;;;;14.27;12.80;;;;;;;12.62;100.00;101825.44;1044039;28;20299;-84
2023/05/14 00:43:40;;;;;;;14.73;12.88;;;;;;;12.71;100.00;101823.38;1031934;28;20321;-84
2023/05/14 00:44:12;;;;;;;15.15;13.40;;;;;;;12.79;100.00;101810.59;1039656;28;20609;-83
2023/05/14 00:44:43;;;;;;;14.80;13.40;;;;;;;12.77;100.00;101814.53;1039856;28;20299;-83
2023/05/14 00:45:15;;;;;;;15.70;13.95;;;;;;;12.80;100.00;101817.59;1044501;28;20295;-83
2023/05/14 00:45:49;;;;;;;14.02;12.73;;;;;;;12.74;100.00;101817.63;1039937;28;20306;-83
2023/05/14 00:46:21;;;;;;;14.75;13.05;;;;;;;12.52;100.00;101825.81;1036621;28;20296;-83
2023/05/14 00:46:54;;;;;;;15.00;11.90;;;;;;;12.57;100.00;101817.19;1040464;28;20351;-84
2023/05/14 00:47:26;;;;;;;15.70;14.20;;;;;;;12.42;100.00;101817.41;1038450;28;20164;-83
2023/05/14 00:47:57;;;;;;;17.42;12.20;;;;;;;12.18;100.00;101824.16;1039635;28;20396;-84
2023/05/14 00:48:29;;;;;;;14.52;13.18;;;;;;;12.16;100.00;101825.38;1035934;28;20656;-84
2023/05/14 00:49:01;;;;;;;15.82;14.00;;;;;;;12.26;100.00;101815.94;1036184;28;20065;-84
2023/05/14 00:49:33;;;;;;;18.38;13.30;;;;;;;12.31;100.00;101818.00;1040336;28;20303;-84
2023/05/14 00:50:05;;;;;;;15.65;13.77;;;;;;;12.24;100.00;101823.31;1039694;28;20304;-83
2023/05/14 00:50:37;;;;;;;18.00;14.40;;;;;;;12.35;100.00;101819.25;1044447;28;20036;-84
2023/05/14 00:51:09;;;;;;;16.08;14.57;;;;;;;12.33;100.00;101813.28;1035660;28;20307;-84
2023/05/14 00:51:41;;;;;;;17.58;14.98;;;;;;;12.44;100.00;101818.03;1036194;28;20311;-84
2023/05/14 00:52:14;;;;;;;14.45;12.95;;;;;;;12.50;100.00;101811.84;1040508;28;20324;-84
2023/05/14 00:52:46;;;;;;;15.82;14.15;;;;;;;12.53;100.00;101816.78;1041192;28;20299;-84
2023/05/14 00:53:18;;;;;;;23.02;14.35;;;;;;;12.60;100.00;101806.09;1043675;28;20300;-84
2023/05/14 00:53:50;;;;;;;16.15;13.40;;;;;;;12.59;100.00;101807.94;1039834;28;20295;-83
2023/05/14 00:54:22;;;;;;;17.20;15.35;;;;;;;12.50;100.00;101803.84;1039808;28;20347;-84
2023/05/14 00:54:53;;;;;;;16.08;13.32;;;;;;;12.56;100.00;101805.69;1043933;28;20330;-84
2023/05/14 00:55:26;;;;;;;25.15;15.63;;;;;;;12.42;100.00;101809.38;1044478;28;20295;-82
2023/05/14 00:55:58;;;;;;;15.13;13.18;;;;;;;12.28;100.00;101813.06;1047944;28;20345;-84
2023/05/14 00:56:30;;;;;;;13.75;12.38;;;;;;;12.40;100.00;101806.09;1035584;28;20046;-84
2023/05/14 00:57:02;;;;;;;14.65;13.13;;;;;;;12.53;100.00;101808.75;1036551;28;20398;-84
2023/05/14 00:57:35;;;;;;;16.13;14.43;;;;;;;12.61;100.00;101808.59;1035588;28;20304;-84
2023/05/14 00:58:09;;;;;;;15.10;13.60;;;;;;;12.43;100.00;101805.69;1037520;28;20694;-84
2023/05/14 00:58:41;;;;;;;14.13;12.73;;;;;;;12.42;100.00;101809.38;1039616;28;20303;-84
2023/05/14 00:59:13;;;;;;;17.42;12.93;;;;;;;12.53;100.00;101807.94;1035294;28;20311;-84
2023/05/14 00:59:44;;;;;;;15.18;13.57;;;;;;;12.45;100.00;101805.47;1039537;28;20662;-83
2023/05/14 01:00:16;;;;;;;15.27;13.85;;;;;;;12.53;100.00;101805.28;1048226;28;20301;-84
2023/05/14 01:00:48;;;;;;;18.42;13.52;;;;;;;12.67;100.00;101805.06;1051916;28;20301;-83
2023/05/14 01:01:19;;;;;;;14.43;13.07;;;;;;;12.59;100.00;101799.91;1048046;28;20313;-84
2023/05/14 01:01:51;;;;;;;16.25;14.60;;;;;;;12.55;100.00;101801.34;1047337;28;20094;-84
2023/05/14 01:02:23;;;;;;;15.40;13.82;;;;;;;12.66;100.00;101800.75;1040867;28;20284;-83
2023/05/14 01:02:55;;;;;;;16.40;12.95;;;;;;;12.52;100.00;101807.13;1044443;28;20493;-84
2023/05/14 01:03:26;;;;;;;14.35;12.95;;;;;;;12.57;100.00;101807.31;1039563;28;20304;-84
2023/05/14 01:03:59;;;;;;;15.30;13.43;;;;;;;12.47;100.00;101808.75;1043807;28;20897;-84
2023/05/14 01:04:31;;;;;;;15.65;13.32;;;;;;;12.50;100.00;101806.50;1041825;28;20337;-84
2023/05/14 01:05:03;;;;;;;14.20;12.80;;;;;;;12.60;100.00;101806.94;1044434;28;20990;-84
2023/05/14 01:05:41;;;;;;;15.20;13.60;;;;;;;12.53;100.00;101802.59;1048223;28;20530;-84
2023/05/14 01:06:23;;;;;;;18.33;14.05;;;;;;;12.31;100.00;101812.66;1045309;28;20633;-84
2023/05/14 01:07:32;;;;;;;14.40;12.93;;;;;;;12.15;100.00;101807.72;1047738;28;20310;-83
2023/05/14 01:08:16;;;;;;;13.65;12.15;;;;;;;12.33;100.00;101810.63;1045167;28;20303;-84
2023/05/14 01:09:09;;;;;;;17.45;12.52;;;;;;;12.33;100.00;101813.28;1042458;28;20661;-84
2023/05/14 01:09:41;;;;;;;15.57;12.82;;;;;;;12.40;100.00;101811.44;1044174;28;20299;-83
2023/05/14 01:10:18;;;;;;;13.60;12.05;;;;;;;12.41;100.00;101807.75;1048061;28;20283;-84
2023/05/14 01:10:52;;;;;;;21.60;13.27;;;;;;;12.32;100.00;101811.63;1052130;28;20309;-84
2023/05/14 01:11:28;;;;;;;14.65;12.20;;;;;;;12.42;100.00;101804.03;1051635;28;20811;-84
2023/05/14 01:12:18;;;;;;;13.10;11.80;;;;;;;12.32;100.00;101806.28;1048070;28;20303;-84
2023/05/14 01:13:11;;;;;;;14.10;12.63;;;;;;;12.32;100.00;101808.94;1044052;28;20817;-84
2023/05/14 01:14:01;;;;;;;15.20;12.23;;;;;;;12.35;100.00;101803.22;1043548;28;20306;-84
2023/05/14 01:14:35;;;;;;;13.93;12.52;;;;;;;12.44;100.00;101801.97;1039347;28;20315;-84
2023/05/14 01:15:12;;;;;;;14.15;12.68;;;;;;;12.54;100.00;101802.38;1035841;28;20304;-84
2023/05/14 01:15:46;;;;;;;15.70;12.98;;;;;;;12.48;100.00;101803.22;1041964;28;20033;-83
2023/05/14 01:16:18;;;;;;;17.75;12.95;;;;;;;12.37;100.00;101795.81;1045988;28;20307;-84
2023/05/14 01:16:57;;;;;;;19.00;13.05;;;;;;;12.22;100.00;101798.66;1038940;28;20299;-84
2023/05/14 01:17:31;;;;;;;15.85;14.10;;;;;;;12.24;100.00;101801.13;1043874;28;20291;-84
2023/05/14 01:18:06;;;;;;;13.93;12.35;;;;;;;12.32;100.00;101793.75;1043696;28;20303;-84
2023/05/14 01:18:40;;;;;;;17.95;12.50;;;;;;;12.25;100.00;101798.25;1048325;28;20436;-84
2023/05/14 01:19:21;;;;;;;18.30;12.40;;;;;;;12.33;100.00;101805.28;1047265;28;20309;-84
2023/05/14 01:19:54;;;;;;;13.48;12.18;;;;;;;12.25;100.00;101800.09;1046311;28;20891;-84
2023/05/14 01:20:25;;;;;;;14.63;13.15;;;;;;;12.25;100.00;101802.78;1043626;28;20682;-84
2023/05/14 01:20:57;;;;;;;15.25;12.63;;;;;;;12.26;100.00;101799.09;1045987;28;20041;-84
2023/05/14 01:21:35;;;;;;;14.45;12.68;;;;;;;12.02;100.00;101803.97;1041561;28;20112;-84
2023/05/14 01:22:07;;;;;;;14.35;12.50;;;;;;;11.92;100.00;101792.03;1041322;28;20778;-84
2023/05/14 01:22:39;;;;;;;14.43;12.90;;;;;;;12.03;100.00;101794.94;1040979;28;20303;-84
2023/05/14 01:23:10;;;;;;;17.10;12.82;;;;;;;12.09;100.00;101803.19;1044834;28;20064;-84
2023/05/14 01:23:42;;;;;;;15.27;11.85;;;;;;;12.09;100.00;101793.31;1040337;28;20300;-83
2023/05/14 01:24:13;;;;;;;14.88;12.35;;;;;;;12.02;100.00;101797.81;1044136;28;20303;-84
2023/05/14 01:24:45;;;;;;;12.55;11.45;;;;;;;11.97;100.00;101802.94;1043363;28;20403;-84
2023/05/14 01:25:17;;;;;;;15.82;12.98;;;;;;;12.24;100.00;101798.47;1036697;28;20121;-84
2023/05/14 01:25:49;;;;;;;14.05;12.63;;;;;;;11.90;100.00;101800.25;1043988;28;20307;-84
2023/05/14 01:26:20;;;;;;;12.18;10.95;;;;;;;11.79;100.00;101798.19;1043261;28;20355;-84
2023/05/14 01:26:54;;;;;;;13.20;11.93;;;;;;;11.79;100.00;101808.84;1036552;28;20419;-84
2023/05/14 01:27:35;;;;;;;14.88;12.93;;;;;;;11.84;100.00;101801.06;1035440;28;20300;-84
2023/05/14 01:28:12;;;;;;;16.67;12.48;;;;;;;11.96;100.00;101798.63;1042711;28;20608;-84
2023/05/14 01:28:44;;;;;;;18.88;11.18;;;;;;;11.89;100.00;101795.94;1049278;28;20049;-84
2023/05/14 01:29:21;;;;;;;14.82;11.77;;;;;;;11.92;100.00;101792.88;1054819;28;20301;-84
2023/05/14 01:30:13;;;;;;;11.07;9.98;;;;;;;11.99;100.00;101792.88;1046312;28;20391;-84
2023/05/14 01:30:48;;;;;;;12.45;11.10;;;;;;;12.04;100.00;101793.91;1041938;28;20955;-84
2023/05/14 01:31:26;;;;;;;18.35;12.30;;;;;;;11.89;100.00;101795.13;1039847;28;20551;-84
2023/05/14 01:31:59;;;;;;;14.88;12.38;;;;;;;11.91;100.00;101801.06;1039685;28;20300;-84
2023/05/14 01:32:32;;;;;;;14.07;12.48;;;;;;;11.80;100.00;101799.81;1033437;28;20497;-84
2023/05/14 01:33:10;;;;;;;13.60;12.23;;;;;;;11.75;100.00;101791.53;1038380;28;20295;-84
2023/05/14 01:33:42;;;;;;;14.75;12.73;;;;;;;11.69;100.00;101797.69;1035381;28;20037;-84
2023/05/14 01:34:14;;;;;;;13.35;11.82;;;;;;;11.55;100.00;101794.16;1043654;28;20299;-84
2023/05/14 01:34:47;;;;;;;13.07;11.20;;;;;;;11.48;100.00;101797.78;1043672;28;20859;-84
2023/05/14 01:35:21;;;;;;;15.65;12.88;;;;;;;11.42;100.00;101797.56;1043545;28;20662;-84
2023/05/14 01:35:53;;;;;;;12.25;10.80;;;;;;;11.38;100.00;101796.31;1044598;28;20755;-84
2023/05/14 01:36:26;;;;;;;14.35;11.73;;;;;;;11.36;100.00;101800.22;1048693;28;20910;-84
2023/05/14 01:36:59;;;;;;;16.67;12.45;;;;;;;11.30;100.00;101804.50;1045020;28;20326;-85
2023/05/14 01:37:31;;;;;;;15.25;12.18;;;;;;;11.21;100.00;101800.31;1041483;28;20786;-85
2023/05/14 01:38:06;;;;;;;13.48;11.65;;;;;;;10.95;100.00;101800.97;1035211;28;20108;-85
2023/05/14 01:38:38;;;;;;;13.80;10.90;;;;;;;10.99;100.00;101801.44;1036035;28;20045;-85
2023/05/14 01:39:11;;;;;;;12.65;11.10;;;;;;;11.04;100.00;101807.00;1034329;28;20307;-85
2023/05/14 01:39:43;;;;;;;16.25;12.05;;;;;;;11.03;100.00;101810.69;1036760;28;20882;-85
2023/05/14 01:40:14;;;;;;;13.10;11.57;;;;;;;11.00;100.00;101803.91;1040943;28;20344;-84
2023/05/14 01:40:47;;;;;;;14.57;12.20;;;;;;;10.97;100.00;101801.66;1039276;28;20296;-85
2023/05/14 01:41:20;;;;;;;13.90;12.43;;;;;;;11.21;100.00;101792.31;1042287;28;20824;-85
2023/05/14 01:41:53;;;;;;;14.27;11.27;;;;;;;11.31;100.00;101800.81;1043882;28;20309;-84
2023/05/14 01:42:25;;;;;;;15.68;12.20;;;;;;;11.38;100.00;101793.66;1043548;28;20299;-85
2023/05/14 01:42:56;;;;;;;13.60;12.07;;;;;;;11.52;100.00;101801.72;1043765;28;20148;-84
2023/05/14 01:43:28;;;;;;;17.40;12.40;;;;;;;11.42;100.00;101792.22;1044275;28;20303;-85
2023/05/14 01:44:00;;;;;;;14.13;12.15;;;;;;;11.50;100.00;101793.09;1047634;28;20681;-85
2023/05/14 01:44:32;;;;;;;12.80;11.43;;;;;;;11.51;100.00;101790.25;1047961;28;20295;-85
2023/05/14 01:45:04;;;;;;;17.98;12.55;;;;;;;11.39;100.00;101792.63;1047539;28;20310;-85
2023/05/14 01:45:36;;;;;;;13.30;12.00;;;;;;;11.29;100.00;101797.53;1044005;28;20306;-86
2023/05/14 01:46:08;;;;;;;12.68;11.40;;;;;;;11.24;100.00;101794.63;1044049;28;20677;-85
2023/05/14 01:46:40;;;;;;;13.85;11.52;;;;;;;11.32;100.00;101791.78;1043573;28;20330;-85
2023/05/14 01:47:12;;;;;;;12.68;11.43;;;;;;;11.09;100.00;101791.25;1044012;28;20303;-85
2023/05/14 01:47:43;;;;;;;11.68;10.60;;;;;;;10.96;100.00;101789.34;1043903;28;20310;-85
2023/05/14 01:48:15;;;;;;;14.45;10.98;;;;;;;11.19;100.00;101786.38;1047548;28;20332;-85
2023/05/14 01:48:47;;;;;;;12.25;10.98;;;;;;;11.30;100.00;101785.81;1039129;28;20292;-85
2023/05/14 01:49:18;;;;;;;17.95;11.75;;;;;;;11.42;100.00;101789.56;1039856;28;20658;-85
2023/05/14 01:49:50;;;;;;;14.65;13.10;;;;;;;11.41;100.00;101785.25;1043804;28;20306;-85
2023/05/14 01:50:22;;;;;;;15.43;11.98;;;;;;;11.32;100.00;101782.97;1044437;28;20749;-85
2023/05/14 01:50:54;;;;;;;12.73;11.50;;;;;;;11.21;100.00;101784.31;1047493;28;20299;-85
2023/05/14 01:51:26;;;;;;;13.65;12.30;;;;;;;11.23;100.00;101786.78;1043519;28;20715;-85
2023/05/14 01:51:57;;;;;;;14.05;12.43;;;;;;;11.21;100.00;101787.00;1039316;28;20334;-85
2023/05/14 01:52:29;;;;;;;13.93;12.07;;;;;;;11.21;100.00;101779.00;1040196;28;20443;-85
2023/05/14 01:53:01;;;;;;;16.70;12.40;;;;;;;11.24;100.00;101783.13;1044104;28;20314;-85
2023/05/14 01:53:33;;;;;;;17.23;11.82;;;;;;;11.12;100.00;101782.84;1043369;28;20299;-84
2023/05/14 01:54:05;;;;;;;16.23;11.85;;;;;;;11.18;100.00;101776.72;1040071;28;20307;-85
2023/05/14 01:54:36;;;;;;;13.25;11.48;;;;;;;10.98;100.00;101778.47;1039936;28;20385;-85
2023/05/14 01:55:09;;;;;;;12.00;10.70;;;;;;;10.81;100.00;101789.44;1044014;28;20041;-85
2023/05/14 01:55:41;;;;;;;11.45;10.35;;;;;;;10.62;100.00;101783.94;1047982;28;20048;-85
2023/05/14 01:56:13;;;;;;;15.27;11.30;;;;;;;10.62;100.00;101774.09;1044011;28;20775;-85
2023/05/14 01:56:45;;;;;;;14.50;12.00;;;;;;;10.65;100.00;101778.22;1047696;28;20045;-85
2023/05/14 01:57:16;;;;;;;13.32;11.68;;;;;;;10.77;100.00;101782.84;1040108;28;20318;-84
2023/05/14 01:57:48;;;;;;;12.98;11.63;;;;;;;10.81;100.00;101778.75;1032690;28;20307;-84
2023/05/14 01:58:19;;;;;;;15.38;11.68;;;;;;;10.87;100.00;101771.00;1031500;28;20049;-85
2023/05/14 01:58:51;;;;;;;13.63;12.13;;;;;;;10.80;100.00;101782.44;1043429;28;20044;-85
2023/05/14 01:59:23;;;;;;;13.73;11.05;;;;;;;10.81;100.00;101778.75;1047499;28;20397;-84
2023/05/14 01:59:55;;;;;;;15.50;12.30;;;;;;;10.94;100.00;101783.34;1039416;28;20315;-85
2023/05/14 02:00:26;;;;;;;15.27;13.68;;;;;;;10.98;100.00;101771.28;1043359;28;20307;-85
2023/05/14 02:00:58;;;;;;;17.52;12.18;;;;;;;11.27;100.00;101778.22;1039411;28;20292;-85
2023/05/14 02:01:30;;;;;;;13.57;12.18;;;;;;;11.25;100.00;101774.13;1040914;28;20307;-85
2023/05/14 02:02:02;;;;;;;14.25;11.50;;;;;;;11.14;100.00;101773.63;1047884;28;20299;-84
2023/05/14 02:02:34;;;;;;;12.95;11.65;;;;;;;11.17;100.00;101774.25;1047803;28;20303;-85
2023/05/14 02:03:05;;;;;;;13.73;11.98;;;;;;;11.08;100.00;101779.75;1047488;28;20879;-85
2023/05/14 02:03:37;;;;;;;15.63;12.38;;;;;;;11.16;100.00;101776.09;1039839;28;20304;-85
2023/05/14 02:04:09;;;;;;;14.32;11.80;;;;;;;11.03;100.00;101778.69;1038556;28;20300;-85
2023/05/14 02:04:41;;;;;;;11.93;10.73;;;;;;;11.10;100.00;101772.38;1039847;28;20370;-85
2023/05/14 02:05:12;;;;;;;15.50;11.95;;;;;;;11.02;100.00;101777.06;1044508;28;20334;-85
2023/05/14 02:05:44;;;;;;;14.63;12.80;;;;;;;10.95;100.00;101774.31;1048147;28;20291;-85
2023/05/14 02:06:16;;;;;;;15.15;12.93;;;;;;;10.88;100.00;101780.66;1050951;28;20301;-85
2023/05/14 02:06:47;;;;;;;14.77;12.60;;;;;;;10.73;100.00;101770.09;1043320;28;20349;-85
2023/05/14 02:07:19;;;;;;;13.40;11.93;;;;;;;10.96;100.00;101780.50;1043813;28;20784;-84
2023/05/14 02:07:51;;;;;;;14.93;12.40;;;;;;;11.09;100.00;101780.56;1043877;28;20299;-85
2023/05/14 02:08:23;;;;;;;16.20;12.45;;;;;;;11.01;100.00;101778.91;1047130;28;20312;-84
2023/05/14 02:08:54;;;;;;;12.68;11.32;;;;;;;11.12;100.00;101785.50;1039618;28;20300;-85
2023/05/14 02:09:26;;;;;;;14.23;12.63;;;;;;;10.97;100.00;101776.81;1045717;28;20357;-84
2023/05/14 02:09:58;;;;;;;15.93;11.98;;;;;;;10.82;100.00;101771.59;1035150;28;20824;-85
2023/05/14 02:10:31;;;;;;;14.75;13.07;;;;;;;10.79;100.00;101775.47;1031111;28;20344;-85
2023/05/14 02:11:03;;;;;;;13.93;12.05;;;;;;;10.76;100.00;101781.19;1032147;28;20356;-84
2023/05/14 02:11:34;;;;;;;14.27;12.73;;;;;;;10.47;100.00;101776.06;1036170;28;20296;-85
2023/05/14 02:12:10;;;;;;;13.00;11.68;;;;;;;10.57;100.00;101781.84;1035579;28;20795;-85
2023/05/14 02:12:42;;;;;;;14.68;13.05;;;;;;;10.62;100.00;101775.94;1035791;28;20300;-85
2023/05/14 02:13:13;;;;;;;16.20;11.60;;;;;;;10.64;100.00;101777.41;1040590;28;20298;-85
2023/05/14 02:13:45;;;;;;;14.55;12.05;;;;;;;10.92;100.00;101779.22;1041303;28;20300;-85
2023/05/14 02:14:16;;;;;;;16.10;12.93;;;;;;;10.82;100.00;101774.25;1043489;28;20314;-85
2023/05/14 02:14:48;;;;;;;15.82;12.25;;;;;;;10.84;100.00;101773.03;1043596;28;20825;-85
2023/05/14 02:15:20;;;;;;;18.42;12.18;;;;;;;10.86;100.00;101770.19;1047735;28;20363;-85
2023/05/14 02:15:51;;;;;;;13.90;12.02;;;;;;;10.95;100.00;101762.84;1047833;28;20294;-85
2023/05/14 02:16:23;;;;;;;13.40;12.05;;;;;;;10.93;100.00;101765.72;1047592;28;20468;-85
2023/05/14 02:16:55;;;;;;;17.63;12.95;;;;;;;10.91;100.00;101761.59;1043218;28;20303;-85
2023/05/14 02:17:27;;;;;;;14.77;13.27;;;;;;;10.90;100.00;101759.94;1035402;28;20704;-85
2023/05/14 02:17:58;;;;;;;13.00;11.65;;;;;;;10.88;100.00;101767.31;1035002;28;20849;-85
2023/05/14 02:18:30;;;;;;;14.82;12.27;;;;;;;10.92;100.00;101768.56;1035787;28;20320;-85
2023/05/14 02:19:02;;;;;;;13.70;12.07;;;;;;;10.99;100.00;101764.13;1035750;28;20428;-85
2023/05/14 02:19:33;;;;;;;16.92;12.23;;;;;;;10.93;100.00;101767.56;1039761;28;20300;-84
2023/05/14 02:20:06;;;;;;;15.55;13.82;;;;;;;10.96;100.00;101764.53;1043895;28;20360;-85
2023/05/14 02:20:38;;;;;;;15.55;12.18;;;;;;;11.04;100.00;101773.16;1039848;28;20944;-85
2023/05/14 02:21:09;;;;;;;15.45;12.98;;;;;;;10.92;100.00;101757.91;1040301;28;20300;-84
2023/05/14 02:21:41;;;;;;;16.25;12.35;;;;;;;10.93;100.00;101770.22;1043363;28;20295;-85
2023/05/14 02:22:13;;;;;;;22.77;13.30;;;;;;;11.05;100.00;101766.00;1044473;28;20302;-84
2023/05/14 02:22:45;;;;;;;13.98;12.57;;;;;;;11.09;100.00;101764.59;1047833;28;20357;-84
2023/05/14 02:23:16;;;;;;;16.63;12.85;;;;;;;10.94;100.00;101761.19;1043903;28;20291;-84
2023/05/14 02:23:49;;;;;;;13.32;11.90;;;;;;;10.97;100.00;101771.50;1047671;28;20298;-85
2023/05/14 02:24:21;;;;;;;13.40;12.07;;;;;;;10.89;100.00;101759.13;1048277;28;20317;-85
2023/05/14 02:24:53;;;;;;;15.20;12.25;;;;;;;10.86;100.00;101764.03;1051810;28;20664;-84
2023/05/14 02:25:24;;;;;;;13.55;12.13;;;;;;;10.82;100.00;101760.94;1051807;28;20298;-85
2023/05/14 02:25:56;;;;;;;13.70;12.07;;;;;;;10.49;100.00;101764.19;1047316;28;20302;-85
2023/05/14 02:26:27;;;;;;;12.77;11.50;;;;;;;10.34;100.00;101759.94;1044001;28;20308;-84
2023/05/14 02:26:59;;;;;;;15.05;11.68;;;;;;;10.53;100.00;101761.94;1039501;28;20419;-83
2023/05/14 02:27:31;;;;;;;11.88;10.75;;;;;;;10.62;100.00;101759.97;1039878;28;20311;-84